createdAt,value
2023-04-18T00:00:25.562Z,4.20
2023-04-18T00:03:16.245Z,2.90
2023-04-18T00:05:47.468Z,3.50
2023-04-18T00:08:16.372Z,4.70
2023-04-18T00:10:44.548Z,4.60
2023-04-18T00:13:13.018Z,5.80
2023-04-18T00:15:44.066Z,3.60
2023-04-18T00:18:15.986Z,4.60
2023-04-18T00:20:46.187Z,6.20
2023-04-18T00:23:14.955Z,4.60
2023-04-18T00:25:43.117Z,5.20
2023-04-18T00:28:11.174Z,5.80
2023-04-18T00:30:39.498Z,5.60
2023-04-18T00:33:07.630Z,7.50
2023-04-18T00:35:38.253Z,5.80
2023-04-18T00:38:06.440Z,6.10
2023-04-18T00:40:34.508Z,4.30
2023-04-18T00:43:02.891Z,5.80
2023-04-18T00:45:31.288Z,6.10
2023-04-18T00:47:59.373Z,7.50
2023-04-18T00:50:27.717Z,3.70
2023-04-18T00:52:56.912Z,6.40
2023-04-18T00:55:25.188Z,3.40
2023-04-18T00:57:53.773Z,4.10
2023-04-18T01:00:21.853Z,4.60
2023-04-18T01:02:53.471Z,6.70
2023-04-18T01:05:24.672Z,5.40
2023-04-18T01:07:53.030Z,3.20
2023-04-18T01:10:21.094Z,4.20
2023-04-18T01:12:51.108Z,6.00
2023-04-18T01:15:19.188Z,5.50
2023-04-18T01:17:47.446Z,5.40
2023-04-18T01:20:16.968Z,9.60
2023-04-18T01:22:45.237Z,7.00
2023-04-18T01:25:13.704Z,7.60
2023-04-18T01:27:41.798Z,4.30
2023-04-18T01:30:10.799Z,4.00
2023-04-18T01:32:38.888Z,6.50
2023-04-18T01:35:07.651Z,6.00
2023-04-18T01:37:36.136Z,4.60
2023-04-18T01:40:04.864Z,4.40
2023-04-18T01:42:32.992Z,5.40
2023-04-18T01:45:01.064Z,5.80
2023-04-18T01:47:29.255Z,8.20
2023-04-18T01:49:57.509Z,5.30
2023-04-18T01:52:26.396Z,4.50
2023-04-18T01:54:54.379Z,5.60
2023-04-18T01:57:22.544Z,4.70
2023-04-18T01:59:50.715Z,7.10
2023-04-18T02:02:19.902Z,4.40
2023-04-18T02:04:48.188Z,6.60
2023-04-18T02:07:16.266Z,9.60
2023-04-18T02:09:44.245Z,6.50
2023-04-18T02:12:13.148Z,5.30
2023-04-18T02:14:41.195Z,4.10
2023-04-18T02:17:09.261Z,5.30
2023-04-18T02:19:37.560Z,6.80
2023-04-18T02:22:05.928Z,7.80
2023-04-18T02:24:34.315Z,6.70
2023-04-18T02:27:02.373Z,9.40
2023-04-18T02:29:30.875Z,8.00
2023-04-18T02:31:59.043Z,7.10
2023-04-18T02:34:27.206Z,6.10
2023-04-18T02:36:55.592Z,9.90
2023-04-18T02:39:24.172Z,8.00
2023-04-18T02:41:52.443Z,4.80
2023-04-18T02:44:24.098Z,7.30
2023-04-18T02:46:52.372Z,6.30
2023-04-18T02:49:20.650Z,6.90
2023-04-18T02:51:48.927Z,6.80
2023-04-18T02:54:17.720Z,5.90
2023-04-18T02:56:55.514Z,9.80
2023-04-18T02:59:27.174Z,5.50
2023-04-18T03:04:47.532Z,6.00
2023-04-18T03:07:15.867Z,5.90
2023-04-18T03:09:44.038Z,6.10
2023-04-18T03:12:18.764Z,5.50
2023-04-18T03:14:47.552Z,6.90
2023-04-18T03:17:16.334Z,8.30
2023-04-18T03:19:48.586Z,9.30
2023-04-18T03:22:17.805Z,7.30
2023-04-18T03:24:54.249Z,10.30
2023-04-18T03:27:23.372Z,11.80
2023-04-18T03:29:52.052Z,12.80
2023-04-18T03:32:20.369Z,10.90
2023-04-18T03:34:49.690Z,8.20
2023-04-18T03:37:18.325Z,10.50
2023-04-18T03:39:49.801Z,9.60
2023-04-18T03:42:18.570Z,9.00
2023-04-18T03:44:47.039Z,6.80
2023-04-18T03:47:15.417Z,10.00
2023-04-18T03:49:44.521Z,9.00
2023-04-18T03:52:12.995Z,11.40
2023-04-18T03:54:43.223Z,10.20
2023-04-18T03:57:11.725Z,9.90
2023-04-18T03:59:39.982Z,8.40
2023-04-18T04:02:08.261Z,9.80
2023-04-18T04:04:37.302Z,9.80
2023-04-18T04:07:05.689Z,12.40
2023-04-18T04:09:34.320Z,10.10
2023-04-18T04:12:04.856Z,11.30
2023-04-18T04:14:33.602Z,11.00
2023-04-18T04:17:01.965Z,12.70
2023-04-18T04:19:30.364Z,13.30
2023-04-18T04:22:13.663Z,9.90
2023-04-18T04:24:42.920Z,11.40
2023-04-18T04:27:13.667Z,11.60
2023-04-18T04:29:44.083Z,9.60
2023-04-18T04:32:16.944Z,8.30
2023-04-18T04:34:46.573Z,13.00
2023-04-18T04:37:15.373Z,13.90
2023-04-18T04:39:53.356Z,9.50
2023-04-18T04:42:42.413Z,8.90
2023-04-18T04:45:15.621Z,11.80
2023-04-18T04:47:43.695Z,9.50
2023-04-18T04:50:15.714Z,14.70
2023-04-18T04:52:43.931Z,12.30
2023-04-18T04:55:12.314Z,11.10
2023-04-18T04:57:41.816Z,18.10
2023-04-18T05:00:25.150Z,15.40
2023-04-18T05:02:59.984Z,14.80
2023-04-18T05:05:28.867Z,11.50
2023-04-18T05:07:56.935Z,16.80
2023-04-18T05:10:25.212Z,12.70
2023-04-18T05:12:53.309Z,13.10
2023-04-18T05:15:21.428Z,16.40
2023-04-18T05:17:49.747Z,17.70
2023-04-18T05:20:18.117Z,19.30
2023-04-18T05:22:46.293Z,21.20
2023-04-18T05:25:17.424Z,22.20
2023-04-18T05:27:46.516Z,17.60
2023-04-18T05:30:14.748Z,18.80
2023-04-18T05:32:42.762Z,12.80
2023-04-18T05:35:10.941Z,16.50
2023-04-18T05:37:39.118Z,13.90
2023-04-18T05:40:09.075Z,19.60
2023-04-18T05:42:37.086Z,13.40
2023-04-18T05:45:05.888Z,13.30
2023-04-18T05:47:34.175Z,14.00
2023-04-18T05:50:02.455Z,11.90
2023-04-18T05:52:32.649Z,9.40
2023-04-18T05:55:01.050Z,8.10
2023-04-18T05:57:29.015Z,7.80
2023-04-18T05:59:57.751Z,12.40
2023-04-18T06:02:26.562Z,9.30
2023-04-18T06:04:55.437Z,11.10
2023-04-18T06:07:25.682Z,11.70
2023-04-18T06:09:54.296Z,15.80
2023-04-18T06:12:22.365Z,18.00
2023-04-18T06:14:51.147Z,16.40
2023-04-18T06:17:19.427Z,18.10
2023-04-18T06:19:47.480Z,11.90
2023-04-18T06:22:15.779Z,15.00
2023-04-18T06:24:43.944Z,12.40
2023-04-18T06:27:24.104Z,11.20
2023-04-18T06:29:58.777Z,13.80
2023-04-18T06:32:27.160Z,16.50
2023-04-18T06:34:55.592Z,19.30
2023-04-18T06:37:24.194Z,14.00
2023-04-18T06:39:52.451Z,10.00
2023-04-18T06:42:22.413Z,10.20
2023-04-18T06:44:51.063Z,9.50
2023-04-18T06:47:19.323Z,10.00
2023-04-18T06:49:48.383Z,13.80
2023-04-18T06:52:16.493Z,12.70
2023-04-18T06:54:44.463Z,10.80
2023-04-18T06:57:12.752Z,14.00
2023-04-18T06:59:41.561Z,17.50
2023-04-18T07:02:09.679Z,16.30
2023-04-18T07:04:38.138Z,12.30
2023-04-18T07:07:06.421Z,10.00
2023-04-18T07:09:34.945Z,10.50
2023-04-18T07:12:03.420Z,13.70
2023-04-18T07:14:33.571Z,9.20
2023-04-18T07:17:02.528Z,8.70
2023-04-18T07:19:30.907Z,9.80
2023-04-18T07:21:59.009Z,10.70
2023-04-18T07:24:27.465Z,9.10
2023-04-18T07:26:55.839Z,6.70
2023-04-18T07:29:23.906Z,8.20
2023-04-18T07:31:52.284Z,8.70
2023-04-18T07:34:22.215Z,6.30
2023-04-18T07:36:50.278Z,5.20
2023-04-18T07:39:18.565Z,7.30
2023-04-18T07:41:46.731Z,6.20
2023-04-18T07:44:15.103Z,10.50
2023-04-18T07:46:43.496Z,6.20
2023-04-18T07:49:11.818Z,6.80
2023-04-18T07:51:40.659Z,5.40
2023-04-18T07:54:11.223Z,8.10
2023-04-18T07:56:39.479Z,3.80
2023-04-18T07:59:07.616Z,10.70
2023-04-18T08:01:36.012Z,7.80
2023-04-18T08:04:04.640Z,7.00
2023-04-18T08:06:34.705Z,6.90
2023-04-18T08:09:05.805Z,6.30
2023-04-18T08:11:34.259Z,11.60
2023-04-18T08:14:02.538Z,7.10
2023-04-18T08:16:30.819Z,8.60
2023-04-18T08:18:59.174Z,7.40
2023-04-18T08:21:27.144Z,6.50
2023-04-18T08:23:55.777Z,6.90
2023-04-18T08:26:23.906Z,9.00
2023-04-18T08:28:52.177Z,4.40
2023-04-18T08:31:20.362Z,5.50
2023-04-18T08:33:48.523Z,6.00
2023-04-18T08:36:16.651Z,6.90
2023-04-18T08:38:44.775Z,5.10
2023-04-18T08:41:12.861Z,9.10
2023-04-18T08:43:40.911Z,7.30
2023-04-18T08:46:09.347Z,5.40
2023-04-18T08:48:37.469Z,5.60
2023-04-18T08:51:23.158Z,7.60
2023-04-18T08:53:51.320Z,12.60
2023-04-18T08:56:22.490Z,9.60
2023-04-18T08:58:50.940Z,6.40
2023-04-18T09:01:19.282Z,6.90
2023-04-18T09:03:47.633Z,9.60
2023-04-18T09:06:33.788Z,6.10
2023-04-18T09:09:04.537Z,7.80
2023-04-18T09:11:34.694Z,10.00
2023-04-18T09:14:03.636Z,9.60
2023-04-18T09:16:47.013Z,17.60
2023-04-18T09:19:34.103Z,14.00
2023-04-18T09:22:19.564Z,20.60
2023-04-18T09:24:53.004Z,6.60
2023-04-18T09:27:22.604Z,5.20
2023-04-18T09:30:08.973Z,8.20
2023-04-18T09:32:37.071Z,6.60
2023-04-18T09:35:05.834Z,8.30
2023-04-18T09:37:35.232Z,38.10
2023-04-18T09:40:17.151Z,11.10
2023-04-18T09:42:46.740Z,5.40
2023-04-18T09:45:15.730Z,7.60
2023-04-18T09:47:43.739Z,5.50
2023-04-18T09:50:12.297Z,9.50
2023-04-18T09:52:42.303Z,5.60
2023-04-18T09:55:13.458Z,8.20
2023-04-18T09:57:45.616Z,8.50
2023-04-18T10:00:24.654Z,5.90
2023-04-18T10:03:10.139Z,6.80
2023-04-18T10:05:41.325Z,4.90
2023-04-18T10:08:10.560Z,15.50
2023-04-18T10:10:39.171Z,7.70
2023-04-18T10:13:11.310Z,8.50
2023-04-18T10:15:40.373Z,7.80
2023-04-18T10:18:14.579Z,8.30
2023-04-18T10:20:42.811Z,7.30
2023-04-18T10:23:29.255Z,10.00
2023-04-18T10:25:58.198Z,9.40
2023-04-18T10:28:28.197Z,4.50
2023-04-18T10:31:03.780Z,8.10
2023-04-18T10:33:42.540Z,8.70
2023-04-18T10:36:12.408Z,5.40
2023-04-18T10:38:52.910Z,8.60
2023-04-18T10:41:25.017Z,6.60
2023-04-18T10:44:14.752Z,6.40
2023-04-18T10:46:52.105Z,6.30
2023-04-18T10:49:22.875Z,6.20
2023-04-18T10:51:54.992Z,8.30
2023-04-18T10:54:35.904Z,4.70
2023-04-18T10:57:05.948Z,6.90
2023-04-18T10:59:37.852Z,6.40
2023-04-18T11:02:26.421Z,9.20
2023-04-18T11:04:57.266Z,8.10
2023-04-18T11:07:35.555Z,7.30
2023-04-18T11:10:05.377Z,6.10
2023-04-18T11:12:35.375Z,8.30
2023-04-18T11:15:11.363Z,5.00
2023-04-18T11:17:40.662Z,6.60
2023-04-18T11:20:12.947Z,7.90
2023-04-18T11:22:53.172Z,9.70
2023-04-18T11:25:28.661Z,11.90
2023-04-18T11:28:00.102Z,7.90
2023-04-18T11:30:36.436Z,7.30
2023-04-18T11:33:09.286Z,6.40
2023-04-18T11:35:39.702Z,6.50
2023-04-18T11:38:10.503Z,6.80
2023-04-18T11:40:38.968Z,10.30
2023-04-18T11:43:07.956Z,6.10
2023-04-18T11:45:36.356Z,9.10
2023-04-18T11:48:04.762Z,10.50
2023-04-18T11:50:37.577Z,13.10
2023-04-18T11:53:05.753Z,9.20
2023-04-18T11:55:33.809Z,7.20
2023-04-18T11:58:02.418Z,8.10
2023-04-18T12:00:35.251Z,8.90
2023-04-18T12:03:11.857Z,7.80
2023-04-18T12:05:44.924Z,5.50
2023-04-18T12:08:17.537Z,6.00
2023-04-18T12:10:50.936Z,10.50
2023-04-18T12:13:24.032Z,7.00
2023-04-18T12:15:52.562Z,8.70
2023-04-18T12:18:21.491Z,6.10
2023-04-18T12:20:52.317Z,14.70
2023-04-18T12:23:37.260Z,7.00
2023-04-18T12:26:08.027Z,7.60
2023-04-18T12:28:36.241Z,7.80
2023-04-18T12:31:07.761Z,9.20
2023-04-18T12:33:38.622Z,7.70
2023-04-18T12:36:10.635Z,7.90
2023-04-18T12:38:38.731Z,8.10
2023-04-18T12:41:07.006Z,6.50
2023-04-18T12:43:35.170Z,6.20
2023-04-18T12:46:03.765Z,7.60
2023-04-18T12:48:31.937Z,4.70
2023-04-18T12:51:00.110Z,4.90
2023-04-18T12:53:28.177Z,8.70
2023-04-18T12:55:56.363Z,9.60
2023-04-18T12:58:24.526Z,8.90
2023-04-18T13:00:52.733Z,5.90
2023-04-18T13:03:21.360Z,8.30
2023-04-18T13:05:49.976Z,6.30
2023-04-18T13:08:18.326Z,6.90
2023-04-18T13:10:47.747Z,8.60
2023-04-18T13:13:16.352Z,6.40
2023-04-18T13:15:44.415Z,8.60
2023-04-18T13:18:12.509Z,6.60
2023-04-18T13:20:40.872Z,8.20
2023-04-18T13:23:08.896Z,9.70
2023-04-18T13:25:37.005Z,6.00
2023-04-18T13:28:05.826Z,13.60
2023-04-18T13:30:35.828Z,6.50
2023-04-18T13:33:04.401Z,8.40
2023-04-18T13:35:32.679Z,7.00
2023-04-18T13:38:00.719Z,5.60
2023-04-18T13:40:28.806Z,6.20
2023-04-18T13:42:56.993Z,9.60
2023-04-18T13:45:25.082Z,9.30
2023-04-18T13:47:53.306Z,8.00
2023-04-18T13:50:23.378Z,6.30
2023-04-18T13:52:52.205Z,12.70
2023-04-18T13:55:20.411Z,7.70
2023-04-18T13:57:48.592Z,6.90
2023-04-18T14:00:17.687Z,6.30
2023-04-18T14:02:45.993Z,5.00
2023-04-18T14:05:14.417Z,8.60
2023-04-18T14:07:42.831Z,5.80
2023-04-18T14:10:11.304Z,8.00
2023-04-18T14:12:40.196Z,14.60
2023-04-18T14:15:09.190Z,10.30
2023-04-18T14:17:37.252Z,11.50
2023-04-18T14:20:06.370Z,5.90
2023-04-18T14:22:34.629Z,11.60
2023-04-18T14:25:02.699Z,7.60
2023-04-18T14:27:30.701Z,5.90
2023-04-18T14:29:58.750Z,6.90
2023-04-18T14:32:27.353Z,7.20
2023-04-18T14:34:55.623Z,9.90
2023-04-18T14:37:23.742Z,9.00
2023-04-18T14:39:52.077Z,9.80
2023-04-18T14:42:20.264Z,6.30
2023-04-18T14:44:48.406Z,11.10
2023-04-18T14:47:16.466Z,6.80
2023-04-18T14:49:44.651Z,8.90
2023-04-18T14:52:13.333Z,7.40
2023-04-18T14:54:41.245Z,18.80
2023-04-18T14:57:10.399Z,16.00
2023-04-18T14:59:38.473Z,7.00
2023-04-18T15:02:07.185Z,6.60
2023-04-18T15:04:35.576Z,10.50
2023-04-18T15:07:03.853Z,7.20
2023-04-18T15:09:36.722Z,8.00
2023-04-18T15:12:06.168Z,8.30
2023-04-18T15:14:35.189Z,7.60
2023-04-18T15:17:03.302Z,5.40
2023-04-18T15:19:31.556Z,7.00
2023-04-18T15:21:59.666Z,9.10
2023-04-18T15:24:27.718Z,9.80
2023-04-18T15:26:55.907Z,9.30
2023-04-18T15:29:24.188Z,8.50
2023-04-18T15:31:52.377Z,7.30
2023-04-18T15:34:20.742Z,6.70
2023-04-18T15:36:51.695Z,9.00
2023-04-18T15:39:23.539Z,8.10
2023-04-18T15:41:56.648Z,12.00
2023-04-18T15:44:24.799Z,8.20
2023-04-18T15:46:52.877Z,9.20
2023-04-18T15:49:21.035Z,8.10
2023-04-18T15:51:49.115Z,10.90
2023-04-18T15:54:17.248Z,9.70
2023-04-18T15:56:45.424Z,13.40
2023-04-18T15:59:13.930Z,9.80
2023-04-18T16:01:45.218Z,7.00
2023-04-18T16:04:14.872Z,8.10
2023-04-18T16:06:43.374Z,11.40
2023-04-18T16:09:11.763Z,8.80
2023-04-18T16:11:39.824Z,12.40
2023-04-18T16:14:07.888Z,12.70
2023-04-18T16:16:35.971Z,10.60
2023-04-18T16:19:05.685Z,10.30
2023-04-18T16:21:33.947Z,13.10
2023-04-18T16:24:02.265Z,9.20
2023-04-18T16:26:30.599Z,8.10
2023-04-18T16:28:58.574Z,9.10
2023-04-18T16:31:26.689Z,10.00
2023-04-18T16:33:54.868Z,11.00
2023-04-18T16:36:23.111Z,16.40
2023-04-18T16:38:51.375Z,11.40
2023-04-18T16:41:19.546Z,16.90
2023-04-18T16:43:47.928Z,11.60
2023-04-18T16:46:16.166Z,15.00
2023-04-18T16:48:45.400Z,11.30
2023-04-18T16:51:13.581Z,11.10
2023-04-18T16:53:41.651Z,11.80
2023-04-18T16:56:09.619Z,16.00
2023-04-18T16:58:37.704Z,13.20
2023-04-18T17:01:08.293Z,16.20
2023-04-18T17:03:36.868Z,17.50
2023-04-18T17:06:05.956Z,23.00
2023-04-18T17:08:34.380Z,20.40
2023-04-18T17:11:02.872Z,28.90
2023-04-18T17:13:31.724Z,23.90
2023-04-18T17:15:59.979Z,26.50
2023-04-18T17:18:29.119Z,41.80
2023-04-18T17:20:57.207Z,43.20
2023-04-18T17:23:25.387Z,27.20
2023-04-18T17:25:53.442Z,27.70
2023-04-18T17:28:23.819Z,33.20
2023-04-18T17:30:52.161Z,30.10
2023-04-18T17:33:21.194Z,17.60
2023-04-18T17:35:50.433Z,16.60
2023-04-18T17:38:18.719Z,14.30
2023-04-18T17:40:46.885Z,9.30
2023-04-18T17:43:15.121Z,11.80
2023-04-18T17:45:44.397Z,9.50
2023-04-18T17:48:12.860Z,14.20
2023-04-18T17:50:41.326Z,26.30
2023-04-18T17:53:09.612Z,13.40
2023-04-18T17:55:39.820Z,17.20
2023-04-18T17:58:08.165Z,14.00
2023-04-18T18:00:36.370Z,18.30
2023-04-18T18:03:05.395Z,15.60
2023-04-18T18:05:33.523Z,17.10
2023-04-18T18:08:01.577Z,21.40
2023-04-18T18:10:30.197Z,16.80
2023-04-18T18:12:58.576Z,21.10
2023-04-18T18:15:27.576Z,22.40
2023-04-18T18:17:56.278Z,27.30
2023-04-18T18:20:25.156Z,27.80
2023-04-18T18:22:54.610Z,33.10
2023-04-18T18:25:22.838Z,22.10
2023-04-18T18:27:51.729Z,28.00
2023-04-18T18:30:20.611Z,23.60
2023-04-18T18:32:49.611Z,21.40
2023-04-18T18:35:18.097Z,21.10
2023-04-18T18:37:46.148Z,17.60
2023-04-18T18:40:14.323Z,21.40
2023-04-18T18:42:42.748Z,26.60
2023-04-18T18:45:10.986Z,23.70
2023-04-18T18:47:40.092Z,27.30
2023-04-18T18:50:09.180Z,22.90
2023-04-18T18:52:37.461Z,22.10
2023-04-18T18:55:06.647Z,23.40
2023-04-18T18:57:34.712Z,23.50
2023-04-18T19:00:02.629Z,20.20
2023-04-18T19:02:31.052Z,20.20
2023-04-18T19:04:59.414Z,18.20
2023-04-18T19:07:29.915Z,19.70
2023-04-18T19:10:00.618Z,19.20
2023-04-18T19:12:29.436Z,22.80
2023-04-18T19:14:57.570Z,23.50
2023-04-18T19:17:25.831Z,15.40
2023-04-18T19:19:58.050Z,15.10
2023-04-18T19:22:26.406Z,19.90
2023-04-18T19:24:54.560Z,13.70
2023-04-18T19:27:23.352Z,19.30
2023-04-18T19:29:51.527Z,15.30
2023-04-18T19:32:20.669Z,14.50
2023-04-18T19:34:49.043Z,16.40
2023-04-18T19:37:17.168Z,21.50
2023-04-18T19:39:45.245Z,17.20
2023-04-18T19:42:13.435Z,19.80
2023-04-18T19:44:41.899Z,15.90
2023-04-18T19:47:10.077Z,17.60
2023-04-18T19:49:38.465Z,16.00
2023-04-18T19:52:06.631Z,16.60
2023-04-18T19:54:34.908Z,17.20
2023-04-18T19:57:04.727Z,17.80
2023-04-18T19:59:33.105Z,13.90
2023-04-18T20:02:04.323Z,15.20
2023-04-18T20:04:34.725Z,17.10
2023-04-18T20:07:03.151Z,14.80
2023-04-18T20:09:31.317Z,15.40
2023-04-18T20:12:01.570Z,13.00
2023-04-18T20:14:30.034Z,17.10
2023-04-18T20:16:58.218Z,11.90
2023-04-18T20:19:27.070Z,13.20
2023-04-18T20:21:55.265Z,15.50
2023-04-18T20:24:24.019Z,13.90
2023-04-18T20:26:52.225Z,10.20
2023-04-18T20:29:20.524Z,10.70
2023-04-18T20:31:48.470Z,10.10
2023-04-18T20:34:16.966Z,13.90
2023-04-18T20:36:46.669Z,17.10
2023-04-18T20:39:15.670Z,10.30
2023-04-18T20:41:47.008Z,12.70
2023-04-18T20:44:16.506Z,13.10
2023-04-18T20:46:44.986Z,19.70
2023-04-18T20:49:13.216Z,12.80
2023-04-18T20:51:41.480Z,15.70
2023-04-18T20:54:09.421Z,18.30
2023-04-18T20:56:37.715Z,9.90
2023-04-18T20:59:05.871Z,12.60
2023-04-18T21:01:35.534Z,14.20
2023-04-18T21:04:05.497Z,17.90
2023-04-18T21:06:34.184Z,17.30
2023-04-18T21:09:02.446Z,17.50
2023-04-18T21:11:30.834Z,15.90
2023-04-18T21:13:59.320Z,14.60
2023-04-18T21:16:27.732Z,14.50
2023-04-18T21:18:55.855Z,17.30
2023-04-18T21:21:24.467Z,14.00
2023-04-18T21:23:52.430Z,14.40
2023-04-18T21:26:21.208Z,12.80
2023-04-18T21:29:04.153Z,14.90
2023-04-18T21:31:34.361Z,19.40
2023-04-18T21:34:05.175Z,16.40
2023-04-18T21:36:33.776Z,17.20
2023-04-18T21:39:02.339Z,16.90
2023-04-18T21:41:30.415Z,14.70
2023-04-18T21:43:58.607Z,12.70
2023-04-18T21:46:26.801Z,15.00
2023-04-18T21:48:54.968Z,11.20
2023-04-18T21:51:23.263Z,16.90
2023-04-18T21:53:52.211Z,13.50
2023-04-18T21:56:20.579Z,12.60
2023-04-18T21:58:49.277Z,13.80
2023-04-18T22:01:17.495Z,16.60
2023-04-18T22:03:46.485Z,18.30
2023-04-18T22:06:14.834Z,12.50
2023-04-18T22:08:43.406Z,14.60
2023-04-18T22:11:11.949Z,16.20
2023-04-18T22:13:40.073Z,16.20
2023-04-18T22:16:09.616Z,18.70
2023-04-18T22:18:38.170Z,16.80
2023-04-18T22:21:07.054Z,13.00
2023-04-18T22:23:35.727Z,14.70
2023-04-18T22:26:03.701Z,11.90
2023-04-18T22:28:32.549Z,13.80
2023-04-18T22:31:01.331Z,13.20
2023-04-18T22:33:29.564Z,13.40
2023-04-18T22:35:57.834Z,14.70
2023-04-18T22:38:26.102Z,15.10
2023-04-18T22:40:54.382Z,12.40
2023-04-18T22:43:23.984Z,11.80
2023-04-18T22:45:52.087Z,13.90
2023-04-18T22:48:20.342Z,10.90
2023-04-18T22:50:50.137Z,10.70
2023-04-18T22:53:18.420Z,10.30
2023-04-18T22:55:46.796Z,12.40
2023-04-18T22:58:15.000Z,12.70
2023-04-18T23:00:43.077Z,15.00
2023-04-18T23:03:11.683Z,14.20
2023-04-18T23:05:40.640Z,12.80
2023-04-18T23:08:08.825Z,12.80
2023-04-18T23:10:36.848Z,12.50
2023-04-18T23:13:04.868Z,16.70
2023-04-18T23:15:32.972Z,16.40
2023-04-18T23:18:01.398Z,22.70
2023-04-18T23:20:29.678Z,21.10
2023-04-18T23:22:57.754Z,22.50
2023-04-18T23:25:25.923Z,26.50
2023-04-18T23:27:54.097Z,20.20
2023-04-18T23:30:22.278Z,21.50
2023-04-18T23:32:50.473Z,19.90
2023-04-18T23:35:18.827Z,18.30
2023-04-18T23:37:47.104Z,19.60
2023-04-18T23:40:15.168Z,19.40
2023-04-18T23:42:43.883Z,22.00
2023-04-18T23:45:12.229Z,19.40
2023-04-18T23:47:40.290Z,20.10
2023-04-18T23:50:09.498Z,19.20
2023-04-18T23:52:38.815Z,15.20
2023-04-18T23:55:07.825Z,19.50
2023-04-18T23:57:36.070Z,11.70
